createdAt,value
2018-08-12T00:01:25.634Z,20.41
2018-08-12T00:03:55.388Z,20.35
2018-08-12T00:06:25.094Z,20.33
2018-08-12T00:08:54.941Z,20.27
2018-08-12T00:11:24.651Z,20.25
2018-08-12T00:13:54.895Z,20.18
2018-08-12T00:16:24.801Z,20.25
2018-08-12T00:18:54.585Z,20.37
2018-08-12T00:21:24.410Z,20.45
2018-08-12T00:23:54.152Z,20.34
2018-08-12T00:26:23.946Z,20.38
2018-08-12T00:28:54.525Z,20.37
2018-08-12T00:31:24.326Z,20.36
2018-08-12T00:33:57.590Z,20.31
2018-08-12T00:36:27.256Z,20.40
2018-08-12T00:38:57.584Z,20.42
2018-08-12T00:41:28.404Z,20.39
2018-08-12T00:44:00.784Z,20.34
2018-08-12T00:46:33.150Z,20.36
2018-08-12T00:49:02.939Z,20.31
2018-08-12T00:51:32.808Z,20.23
2018-08-12T00:54:02.544Z,20.14
2018-08-12T00:56:32.479Z,20.14
2018-08-12T00:59:02.319Z,20.23
2018-08-12T01:01:32.162Z,20.21
2018-08-12T01:04:01.968Z,20.25
2018-08-12T01:06:31.685Z,20.25
2018-08-12T01:09:01.508Z,20.05
2018-08-12T01:11:31.275Z,20.08
2018-08-12T01:14:01.124Z,20.09
2018-08-12T01:16:30.894Z,20.19
2018-08-12T01:19:00.667Z,20.07
2018-08-12T01:21:30.487Z,19.96
2018-08-12T01:24:00.251Z,20.00
2018-08-12T01:26:30.127Z,19.95
2018-08-12T01:29:00.932Z,19.83
2018-08-12T01:31:31.179Z,19.88
2018-08-12T01:34:00.967Z,19.94
2018-08-12T01:36:31.268Z,19.88
2018-08-12T01:39:02.211Z,19.92
2018-08-12T01:41:32.631Z,19.87
2018-08-12T01:44:02.346Z,19.85
2018-08-12T01:46:32.119Z,19.83
2018-08-12T01:49:01.886Z,19.87
2018-08-12T01:51:31.606Z,19.87
2018-08-12T01:54:01.248Z,19.86
2018-08-12T01:56:31.082Z,19.91
2018-08-12T01:59:00.964Z,19.94
2018-08-12T02:01:30.801Z,20.00
2018-08-12T02:04:01.378Z,20.05
2018-08-12T02:06:31.192Z,19.90
2018-08-12T02:09:01.422Z,19.87
2018-08-12T02:11:31.231Z,19.92
2018-08-12T02:14:01.092Z,19.85
2018-08-12T02:16:36.241Z,19.84
2018-08-12T02:19:06.830Z,19.86
2018-08-12T02:21:37.558Z,19.87
2018-08-12T02:24:07.886Z,19.79
2018-08-12T02:26:38.787Z,19.82
2018-08-12T02:29:08.690Z,19.83
2018-08-12T02:31:38.525Z,19.77
2018-08-12T02:34:08.334Z,19.80
2018-08-12T02:36:38.029Z,19.67
2018-08-12T02:39:11.753Z,19.19
2018-08-12T02:41:41.514Z,19.65
2018-08-12T02:44:11.304Z,19.75
2018-08-12T02:46:41.003Z,19.66
2018-08-12T02:49:10.780Z,19.63
2018-08-12T02:51:41.313Z,19.59
2018-08-12T02:54:11.613Z,19.64
2018-08-12T02:56:41.302Z,19.63
2018-08-12T02:59:11.442Z,19.63
2018-08-12T03:01:41.404Z,19.61
2018-08-12T03:04:12.448Z,19.57
2018-08-12T03:06:42.127Z,19.58
2018-08-12T03:09:13.149Z,19.55
2018-08-12T03:11:43.907Z,19.59
2018-08-12T03:14:13.752Z,19.56
2018-08-12T03:16:44.322Z,19.52
2018-08-12T03:19:14.025Z,19.60
2018-08-12T03:21:43.757Z,19.60
2018-08-12T03:24:13.579Z,19.75
2018-08-12T03:26:45.137Z,19.63
2018-08-12T03:29:14.816Z,19.78
2018-08-12T03:31:47.947Z,19.88
2018-08-12T03:34:17.936Z,20.31
2018-08-12T03:36:47.716Z,20.97
2018-08-12T03:39:17.534Z,21.45
2018-08-12T03:41:47.334Z,21.89
2018-08-12T03:44:17.062Z,22.36
2018-08-12T03:46:46.751Z,22.66
2018-08-12T03:49:16.870Z,22.89
2018-08-12T03:51:47.572Z,23.40
2018-08-12T03:54:17.376Z,23.93
2018-08-12T03:56:47.456Z,24.26
2018-08-12T03:59:17.398Z,24.67
2018-08-12T04:01:47.154Z,24.96
2018-08-12T04:04:17.539Z,24.93
2018-08-12T04:06:47.975Z,25.62
2018-08-12T04:09:20.855Z,25.50
2018-08-12T04:11:51.030Z,25.69
2018-08-12T04:14:21.080Z,26.13
2018-08-12T04:16:59.233Z,26.40
2018-08-12T04:19:31.565Z,26.78
2018-08-12T04:22:02.285Z,27.98
2018-08-12T04:24:32.260Z,28.77
2018-08-12T04:27:02.051Z,29.38
2018-08-12T04:29:31.744Z,28.88
2018-08-12T04:32:03.698Z,29.24
2018-08-12T04:34:34.613Z,28.72
2018-08-12T04:37:13.955Z,29.73
2018-08-12T04:39:44.998Z,29.30
2018-08-12T04:42:15.749Z,29.52
2018-08-12T04:44:45.569Z,29.85
2018-08-12T04:47:15.279Z,29.63
2018-08-12T04:49:44.920Z,30.17
2018-08-12T04:52:15.109Z,30.90
2018-08-12T04:54:45.678Z,30.37
2018-08-12T04:57:17.212Z,29.65
2018-08-12T04:59:46.974Z,29.60
2018-08-12T05:02:16.763Z,29.53
2018-08-12T05:04:46.597Z,30.13
2018-08-12T05:07:17.498Z,30.04
2018-08-12T05:09:47.280Z,31.08
2018-08-12T05:12:18.409Z,30.65
2018-08-12T05:14:48.097Z,30.87
2018-08-12T05:17:17.783Z,30.29
2018-08-12T05:19:47.585Z,31.31
2018-08-12T05:22:18.621Z,31.24
2018-08-12T05:24:48.608Z,31.31
2018-08-12T05:27:18.735Z,30.84
2018-08-12T05:29:49.350Z,31.21
2018-08-12T05:32:20.481Z,31.63
2018-08-12T05:34:51.656Z,30.89
2018-08-12T05:37:22.607Z,31.13
2018-08-12T05:39:52.417Z,32.01
2018-08-12T05:42:24.182Z,33.02
2018-08-12T05:44:58.906Z,32.18
2018-08-12T05:47:30.426Z,31.34
2018-08-12T05:50:00.274Z,32.32
2018-08-12T05:52:33.677Z,32.64
2018-08-12T05:55:03.709Z,31.10
2018-08-12T05:57:37.395Z,31.79
2018-08-12T06:00:10.141Z,32.22
2018-08-12T06:02:39.932Z,32.60
2018-08-12T06:05:10.114Z,32.13
2018-08-12T06:07:40.101Z,32.71
2018-08-12T06:10:12.109Z,32.49
2018-08-12T06:12:41.978Z,33.00
2018-08-12T06:15:14.658Z,32.95
2018-08-12T06:17:45.480Z,32.51
2018-08-12T06:20:15.864Z,34.46
2018-08-12T06:22:45.647Z,34.08
2018-08-12T06:25:15.524Z,33.58
2018-08-12T06:27:45.690Z,33.88
2018-08-12T06:30:16.129Z,33.30
2018-08-12T06:32:47.409Z,33.54
2018-08-12T06:35:17.723Z,33.29
2018-08-12T06:37:48.024Z,33.48
2018-08-12T06:40:17.814Z,33.60
2018-08-12T06:42:49.722Z,35.39
2018-08-12T06:45:19.889Z,34.28
2018-08-12T06:47:50.210Z,34.95
2018-08-12T06:50:20.157Z,34.49
2018-08-12T06:52:50.127Z,34.18
2018-08-12T06:55:19.904Z,34.01
2018-08-12T06:57:49.651Z,33.78
2018-08-12T07:00:20.568Z,34.33
2018-08-12T07:02:50.518Z,33.62
2018-08-12T07:05:20.392Z,32.96
2018-08-12T07:07:50.285Z,33.63
2018-08-12T07:10:20.280Z,34.79
2018-08-12T07:12:50.216Z,33.76
2018-08-12T07:15:20.317Z,34.10
2018-08-12T07:17:50.072Z,35.44
2018-08-12T07:20:20.798Z,33.07
2018-08-12T07:22:50.503Z,33.71
2018-08-12T07:25:21.405Z,34.20
2018-08-12T07:27:51.201Z,33.46
2018-08-12T07:30:21.494Z,33.12
2018-08-12T07:32:51.259Z,32.68
2018-08-12T07:35:21.100Z,33.06
2018-08-12T07:37:51.483Z,33.80
2018-08-12T07:40:22.569Z,33.28
2018-08-12T07:42:56.219Z,32.80
2018-08-12T07:45:26.066Z,31.43
2018-08-12T07:47:59.079Z,30.40
2018-08-12T07:50:31.094Z,29.64
2018-08-12T07:53:00.933Z,28.74
2018-08-12T07:55:30.999Z,28.66
2018-08-12T07:58:02.421Z,27.82
2018-08-12T08:00:32.208Z,27.53
2018-08-12T08:03:02.075Z,27.35
2018-08-12T08:05:31.934Z,27.37
2018-08-12T08:08:01.713Z,27.39
2018-08-12T08:10:31.569Z,27.58
2018-08-12T08:13:02.637Z,27.40
2018-08-12T08:15:33.981Z,27.44
2018-08-12T08:18:04.124Z,27.45
2018-08-12T08:20:33.908Z,27.48
2018-08-12T08:23:03.973Z,27.60
2018-08-12T08:25:33.873Z,27.42
2018-08-12T08:28:04.828Z,27.64
2018-08-12T08:30:34.641Z,27.64
2018-08-12T08:33:04.631Z,27.59
2018-08-12T08:35:34.488Z,27.72
2018-08-12T08:38:04.436Z,27.63
2018-08-12T08:40:34.479Z,27.50
2018-08-12T08:43:04.272Z,27.30
2018-08-12T08:45:34.146Z,27.46
2018-08-12T08:48:04.016Z,27.41
2018-08-12T08:50:33.958Z,27.39
2018-08-12T08:53:04.120Z,27.53
2018-08-12T08:55:33.913Z,27.61
2018-08-12T08:58:04.400Z,27.73
2018-08-12T09:00:34.981Z,27.88
2018-08-12T09:03:05.496Z,27.98
2018-08-12T09:05:36.885Z,27.78
2018-08-12T09:08:06.906Z,27.90
2018-08-12T09:10:36.809Z,28.10
2018-08-12T09:13:07.941Z,28.46
2018-08-12T09:15:39.063Z,28.84
2018-08-12T09:18:09.863Z,28.55
2018-08-12T09:20:40.096Z,28.58
2018-08-12T09:23:10.508Z,28.20
2018-08-12T09:25:41.686Z,27.86
2018-08-12T09:28:11.655Z,28.20
2018-08-12T09:30:43.105Z,28.47
2018-08-12T09:33:12.895Z,28.51
2018-08-12T09:35:43.872Z,28.47
2018-08-12T09:38:13.799Z,28.67
2018-08-12T09:40:44.516Z,28.84
2018-08-12T09:43:14.356Z,28.90
2018-08-12T09:45:44.295Z,28.77
2018-08-12T09:48:14.767Z,28.68
2018-08-12T09:50:44.764Z,28.72
2018-08-12T09:53:14.857Z,28.72
2018-08-12T09:55:44.610Z,28.24
2018-08-12T09:58:14.677Z,27.86
2018-08-12T10:00:44.526Z,27.85
2018-08-12T10:03:15.016Z,28.00
2018-08-12T10:05:45.802Z,28.22
2018-08-12T10:08:15.840Z,28.18
2018-08-12T10:10:45.701Z,27.88
2018-08-12T10:13:15.591Z,27.78
2018-08-12T10:15:45.487Z,27.81
2018-08-12T10:18:15.451Z,28.00
2018-08-12T10:20:45.504Z,28.16
2018-08-12T10:23:16.144Z,28.57
2018-08-12T10:25:46.791Z,28.46
2018-08-12T10:28:17.573Z,28.35
2018-08-12T10:30:47.439Z,28.36
2018-08-12T10:33:17.567Z,28.37
2018-08-12T10:35:48.196Z,27.92
2018-08-12T10:38:18.031Z,27.75
2018-08-12T10:40:47.862Z,27.45
2018-08-12T10:45:53.190Z,27.27
2018-08-12T10:48:23.050Z,27.40
2018-08-12T10:50:53.026Z,27.37
2018-08-12T10:53:22.902Z,27.31
2018-08-12T10:55:52.851Z,27.22
2018-08-12T10:58:22.935Z,26.85
2018-08-12T11:00:53.834Z,26.55
2018-08-12T11:03:24.193Z,26.76
2018-08-12T11:05:54.210Z,26.91
2018-08-12T11:08:24.110Z,26.78
2018-08-12T11:10:54.065Z,26.42
2018-08-12T11:13:25.425Z,26.58
2018-08-12T11:15:55.200Z,26.75
2018-08-12T11:18:26.188Z,26.96
2018-08-12T11:20:56.813Z,26.97
2018-08-12T11:23:26.693Z,26.91
2018-08-12T11:25:56.455Z,26.62
2018-08-12T11:28:27.127Z,26.72
2018-08-12T11:30:57.549Z,26.77
2018-08-12T11:33:28.440Z,26.82
2018-08-12T11:35:59.078Z,26.68
2018-08-12T11:38:28.842Z,26.44
2018-08-12T11:40:58.562Z,26.36
2018-08-12T11:43:28.882Z,26.61
2018-08-12T11:45:59.212Z,26.53
2018-08-12T11:48:28.976Z,26.68
2018-08-12T11:50:58.993Z,26.78
2018-08-12T11:53:28.852Z,26.93
2018-08-12T11:55:59.777Z,26.89
2018-08-12T11:58:29.787Z,26.88
2018-08-12T12:00:59.840Z,26.70
2018-08-12T12:03:29.701Z,26.56
2018-08-12T12:05:59.616Z,26.34
2018-08-12T12:08:29.553Z,26.46
2018-08-12T12:10:59.813Z,26.46
2018-08-12T12:13:30.001Z,26.36
2018-08-12T12:16:00.708Z,26.55
2018-08-12T12:18:31.502Z,26.62
2018-08-12T12:21:01.427Z,26.70
2018-08-12T12:23:31.433Z,26.72
2018-08-12T12:26:01.351Z,26.61
2018-08-12T12:28:31.171Z,26.73
2018-08-12T12:31:01.966Z,26.74
2018-08-12T12:33:31.936Z,26.87
2018-08-12T12:36:01.886Z,26.83
2018-08-12T12:38:32.534Z,26.98
2018-08-12T12:41:03.836Z,27.02
2018-08-12T12:43:34.746Z,27.09
2018-08-12T12:46:04.984Z,26.91
2018-08-12T12:48:34.785Z,26.87
2018-08-12T12:51:04.555Z,26.97
2018-08-12T12:53:34.480Z,26.99
2018-08-12T12:56:04.301Z,26.80
2018-08-12T12:58:36.766Z,26.72
2018-08-12T13:01:06.619Z,26.51
2018-08-12T13:03:36.360Z,26.31
2018-08-12T13:06:07.029Z,26.49
2018-08-12T13:08:40.059Z,26.53
2018-08-12T13:11:09.847Z,26.68
2018-08-12T13:13:39.665Z,26.78
2018-08-12T13:16:09.504Z,26.72
2018-08-12T13:18:39.280Z,26.62
2018-08-12T13:21:09.562Z,26.50
2018-08-12T13:23:40.270Z,26.43
2018-08-12T13:26:10.154Z,26.51
2018-08-12T13:28:41.124Z,26.45
2018-08-12T13:31:11.132Z,26.19
2018-08-12T13:33:40.952Z,26.05
2018-08-12T13:36:10.827Z,26.06
2018-08-12T13:38:40.566Z,26.05
2018-08-12T13:41:10.428Z,25.93
2018-08-12T13:43:40.238Z,25.99
2018-08-12T13:46:09.984Z,26.02
2018-08-12T13:48:39.869Z,25.97
2018-08-12T13:51:09.706Z,25.89
2018-08-12T13:53:40.648Z,25.89
2018-08-12T13:56:10.526Z,25.81
2018-08-12T13:58:41.353Z,25.62
2018-08-12T14:01:13.138Z,25.41
2018-08-12T14:03:43.062Z,25.33
2018-08-12T14:06:12.815Z,25.43
2018-08-12T14:08:42.863Z,25.38
2018-08-12T14:11:12.977Z,25.33
2018-08-12T14:13:44.991Z,25.38
2018-08-12T14:16:16.341Z,25.34
2018-08-12T14:18:47.314Z,25.30
2018-08-12T14:21:17.213Z,25.28
2018-08-12T14:23:47.098Z,25.32
2018-08-12T14:26:16.948Z,25.30
2018-08-12T14:28:46.746Z,25.32
2018-08-12T14:31:17.413Z,25.38
2018-08-12T14:33:47.137Z,25.34
2018-08-12T14:36:17.037Z,25.33
2018-08-12T14:38:46.903Z,25.32
2018-08-12T14:41:16.605Z,25.39
2018-08-12T14:43:48.300Z,25.45
2018-08-12T14:46:18.416Z,25.46
2018-08-12T14:48:51.815Z,25.52
2018-08-12T14:51:21.633Z,25.55
2018-08-12T14:53:51.568Z,25.61
2018-08-12T14:56:21.675Z,25.68
2018-08-12T14:58:51.408Z,25.73
2018-08-12T15:01:22.122Z,25.87
2018-08-12T15:03:53.782Z,25.87
2018-08-12T15:06:23.718Z,25.97
2018-08-12T15:08:53.632Z,26.01
2018-08-12T15:11:23.413Z,25.91
2018-08-12T15:13:53.344Z,25.83
2018-08-12T15:16:26.173Z,25.66
2018-08-12T15:18:58.132Z,25.58
2018-08-12T15:21:28.959Z,25.60
2018-08-12T15:23:59.748Z,25.47
2018-08-12T15:26:29.961Z,25.52
2018-08-12T15:28:59.952Z,25.34
2018-08-12T15:31:29.736Z,25.26
2018-08-12T15:34:17.368Z,25.19
2018-08-12T15:36:47.178Z,25.27
2018-08-12T15:39:16.910Z,25.32
2018-08-12T15:41:46.760Z,25.24
2018-08-12T15:44:18.463Z,25.30
2018-08-12T15:46:48.186Z,25.20
2018-08-12T15:49:18.034Z,25.08
2018-08-12T15:51:47.944Z,25.14
2018-08-12T15:54:17.826Z,25.11
2018-08-12T15:56:47.686Z,25.05
2018-08-12T15:59:17.660Z,24.86
2018-08-12T16:01:47.441Z,24.83
2018-08-12T16:04:17.295Z,24.80
2018-08-12T16:06:47.136Z,24.72
2018-08-12T16:09:16.884Z,24.73
2018-08-12T16:11:46.650Z,24.72
2018-08-12T16:14:16.363Z,24.83
2018-08-12T16:16:49.349Z,24.82
2018-08-12T16:19:20.457Z,24.75
2018-08-12T16:21:50.283Z,24.70
2018-08-12T16:24:21.618Z,24.62
2018-08-12T16:26:52.222Z,24.53
2018-08-12T16:29:22.055Z,24.51
2018-08-12T16:31:56.120Z,24.50
2018-08-12T16:34:27.795Z,24.38
2018-08-12T16:36:57.581Z,24.36
2018-08-12T16:39:28.603Z,24.30
2018-08-12T16:41:59.159Z,24.26
2018-08-12T16:44:32.179Z,24.26
2018-08-12T16:47:01.975Z,24.22
2018-08-12T16:49:32.843Z,24.18
2018-08-12T16:52:02.628Z,24.17
2018-08-12T16:54:32.427Z,24.22
2018-08-12T16:57:03.254Z,24.13
2018-08-12T16:59:33.308Z,24.11
2018-08-12T17:02:04.438Z,23.95
2018-08-12T17:04:34.382Z,23.97
2018-08-12T17:07:04.170Z,23.92
2018-08-12T17:09:34.092Z,23.87
2018-08-12T17:12:04.696Z,23.85
2018-08-12T17:14:34.531Z,23.85
2018-08-12T17:17:04.235Z,23.78
2018-08-12T17:19:34.073Z,23.77
2018-08-12T17:22:04.575Z,23.70
2018-08-12T17:24:34.571Z,23.74
2018-08-12T17:27:04.492Z,23.68
2018-08-12T17:29:35.285Z,23.68
2018-08-12T17:32:05.272Z,23.63
2018-08-12T17:34:35.024Z,23.58
2018-08-12T17:37:05.252Z,23.66
2018-08-12T17:39:35.127Z,23.54
2018-08-12T17:42:05.055Z,23.60
2018-08-12T17:44:34.901Z,23.63
2018-08-12T17:47:04.900Z,23.49
2018-08-12T17:49:35.125Z,23.45
2018-08-12T17:52:05.719Z,23.40
2018-08-12T17:54:42.750Z,23.39
2018-08-12T17:57:13.840Z,23.40
2018-08-12T17:59:46.112Z,23.36
2018-08-12T18:02:15.724Z,23.34
2018-08-12T18:04:45.565Z,23.29
2018-08-12T18:07:15.579Z,23.40
2018-08-12T18:09:46.920Z,23.40
2018-08-12T18:12:16.739Z,23.33
2018-08-12T18:14:47.782Z,23.26
2018-08-12T18:17:17.608Z,23.22
2018-08-12T18:22:31.908Z,23.21
2018-08-12T18:25:02.927Z,23.22
2018-08-12T18:27:32.872Z,23.26
2018-08-12T18:30:02.644Z,23.16
2018-08-12T18:32:32.535Z,23.19
2018-08-12T18:35:02.554Z,23.18
2018-08-12T18:37:32.667Z,23.10
2018-08-12T18:42:39.322Z,23.04
2018-08-12T18:45:09.922Z,23.07
2018-08-12T18:47:39.924Z,22.99
2018-08-12T18:50:11.868Z,22.93
2018-08-12T18:52:45.100Z,22.78
2018-08-12T18:55:15.371Z,22.75
2018-08-12T18:57:47.589Z,22.72
2018-08-12T19:00:19.164Z,22.69
2018-08-12T19:02:49.726Z,22.59
2018-08-12T19:05:19.811Z,22.64
2018-08-12T19:07:49.821Z,22.66
2018-08-12T19:10:20.350Z,22.70
2018-08-12T19:12:50.891Z,22.63
2018-08-12T19:15:20.841Z,22.47
2018-08-12T19:17:51.630Z,22.49
2018-08-12T19:20:22.689Z,22.56
2018-08-12T19:22:55.044Z,22.45
2018-08-12T19:25:29.588Z,22.38
2018-08-12T19:28:00.032Z,22.44
2018-08-12T19:30:29.970Z,22.36
2018-08-12T19:32:59.925Z,22.40
2018-08-12T19:35:29.725Z,22.41
2018-08-12T19:37:59.831Z,22.36
2018-08-12T19:40:29.651Z,22.24
2018-08-12T19:42:59.479Z,22.29
2018-08-12T19:45:32.509Z,22.09
2018-08-12T19:48:03.227Z,22.05
2018-08-12T19:50:33.285Z,22.02
2018-08-12T19:53:04.019Z,21.95
2018-08-12T19:55:34.027Z,21.78
2018-08-12T19:58:03.930Z,21.73
2018-08-12T20:00:34.644Z,21.74
2018-08-12T20:03:04.890Z,21.74
2018-08-12T20:05:34.875Z,21.89
2018-08-12T20:08:04.832Z,21.96
2018-08-12T20:10:38.798Z,21.99
2018-08-12T20:13:09.786Z,21.88
2018-08-12T20:15:39.798Z,22.01
2018-08-12T20:18:10.137Z,21.60
2018-08-12T20:20:40.519Z,22.00
2018-08-12T20:23:10.799Z,21.91
2018-08-12T20:25:41.968Z,21.87
2018-08-12T20:28:12.174Z,21.76
2018-08-12T20:30:43.606Z,21.78
2018-08-12T20:33:15.008Z,21.77
2018-08-12T20:35:50.029Z,21.70
2018-08-12T20:38:24.664Z,21.70
2018-08-12T20:40:58.737Z,21.58
2018-08-12T20:43:30.861Z,21.62
2018-08-12T20:46:00.918Z,21.68
2018-08-12T20:48:30.741Z,21.73
2018-08-12T20:51:00.559Z,21.60
2018-08-12T20:53:30.464Z,21.53
2018-08-12T20:56:01.330Z,21.47
2018-08-12T20:58:31.465Z,21.41
2018-08-12T21:01:01.847Z,21.27
2018-08-12T21:03:32.335Z,21.35
2018-08-12T21:06:07.316Z,21.47
2018-08-12T21:08:37.218Z,21.49
2018-08-12T21:11:07.669Z,21.34
2018-08-12T21:13:37.670Z,21.32
2018-08-12T21:16:07.599Z,21.30
2018-08-12T21:18:37.379Z,21.25
2018-08-12T21:21:07.341Z,21.25
2018-08-12T21:23:37.609Z,21.25
2018-08-12T21:26:09.224Z,21.28
2018-08-12T21:28:39.133Z,21.24
2018-08-12T21:31:08.865Z,21.14
2018-08-12T21:33:38.724Z,21.14
2018-08-12T21:36:09.166Z,21.09
2018-08-12T21:38:40.093Z,21.10
2018-08-12T21:41:09.881Z,21.07
2018-08-12T21:43:39.854Z,21.07
2018-08-12T21:46:10.189Z,21.03
2018-08-12T21:48:40.502Z,21.02
2018-08-12T21:51:10.253Z,21.00
2018-08-12T21:53:40.069Z,20.99
2018-08-12T21:56:10.048Z,20.95
2018-08-12T21:58:39.918Z,20.92
2018-08-12T22:01:11.753Z,20.96
2018-08-12T22:03:42.093Z,20.95
2018-08-12T22:06:14.458Z,20.96
2018-08-12T22:08:46.259Z,20.95
2018-08-12T22:11:18.234Z,20.91
2018-08-12T22:13:48.468Z,20.80
2018-08-12T22:16:18.797Z,20.72
2018-08-12T22:18:48.748Z,20.75
2018-08-12T22:21:18.546Z,20.74
2018-08-12T22:23:48.421Z,20.70
2018-08-12T22:26:18.656Z,20.71
2018-08-12T22:29:07.632Z,20.75
2018-08-12T22:31:37.375Z,20.75
2018-08-12T22:34:07.247Z,20.66
2018-08-12T22:36:37.226Z,20.70
2018-08-12T22:39:10.155Z,20.70
2018-08-12T22:41:40.271Z,20.68
2018-08-12T22:44:10.271Z,20.62
2018-08-12T22:46:40.736Z,20.61
2018-08-12T22:49:10.540Z,20.58
2018-08-12T22:51:40.260Z,20.55
2018-08-12T22:54:13.070Z,20.54
2018-08-12T22:56:42.894Z,20.52
2018-08-12T22:59:16.336Z,20.50
2018-08-12T23:01:54.395Z,20.54
2018-08-12T23:04:24.179Z,20.54
2018-08-12T23:06:53.960Z,20.53
2018-08-12T23:09:23.758Z,20.49
2018-08-12T23:11:53.537Z,20.41
2018-08-12T23:14:23.290Z,20.38
2018-08-12T23:17:00.909Z,20.41
2018-08-12T23:19:31.178Z,20.34
2018-08-12T23:22:04.659Z,20.34
2018-08-12T23:24:39.053Z,20.40
2018-08-12T23:27:09.189Z,20.39
2018-08-12T23:29:39.698Z,20.45
2018-08-12T23:32:09.598Z,20.45
2018-08-12T23:34:39.389Z,20.42
2018-08-12T23:37:09.252Z,20.40
2018-08-12T23:39:39.344Z,20.40
2018-08-12T23:42:09.258Z,20.41
2018-08-12T23:44:39.169Z,20.36
2018-08-12T23:47:12.092Z,20.40
2018-08-12T23:49:42.074Z,20.35
2018-08-12T23:52:11.852Z,20.35
2018-08-12T23:54:41.618Z,20.32
2018-08-12T23:57:11.819Z,20.31
2018-08-12T23:59:41.646Z,20.31
